Time;durP1;ratioP1;P1;durP2;ratioP2;P2;SDS_P1;SDS_P2;PMS_P1;PMS_P2;Temp;Humidity;BMP_temperature;BMP_pressure;BME280_temperature;BME280_humidity;BME280_pressure;Samples;Min_cycle;Max_cycle;Signal;HPM_P1;HPM_P2
2021/11/07 00:02:20;;;;;;;1.58;1.10;;;;;;;;;;7331902;19;154021;-15
2021/11/07 00:05:00;;;;;;;1.30;1.30;;;;;;;;;;7331839;19;153493;-13
2021/11/07 00:07:39;;;;;;;0.88;0.88;;;;;;;;;;7331433;19;162143;-17
2021/11/07 00:10:14;;;;;;;1.00;1.00;;;;;;;;;;7330417;19;162425;-12
2021/11/07 00:12:50;;;;;;;1.00;1.00;;;;;;;;;;7331772;19;154058;-13
2021/11/07 00:15:22;;;;;;;1.08;1.08;;;;;;;;;;7331561;19;153657;-15
2021/11/07 00:17:56;;;;;;;0.93;0.93;;;;;;;;;;7331149;19;163363;-14
2021/11/07 00:20:30;;;;;;;1.00;1.00;;;;;;;;;;7330993;19;162450;-14
2021/11/07 00:23:11;;;;;;;0.80;0.80;;;;;;;;;;7331366;19;153985;-14
2021/11/07 00:25:46;;;;;;;0.90;0.90;;;;;;;;;;7331353;19;153523;-15
2021/11/07 00:28:26;;;;;;;0.80;0.80;;;;;;;;;;7330928;19;161823;-14
2021/11/07 00:31:04;;;;;;;0.85;0.85;;;;;;;;;;7329653;19;162565;-13
2021/11/07 00:33:51;;;;;;;0.80;0.80;;;;;;;;;;7329076;19;154188;-15
2021/11/07 00:36:27;;;;;;;0.88;0.88;;;;;;;;;;7330980;19;153735;-12
2021/11/07 00:39:08;;;;;;;0.90;0.90;;;;;;;;;;7329191;19;161846;-14
2021/11/07 00:41:46;;;;;;;0.85;0.85;;;;;;;;;;7330569;19;162380;-13
2021/11/07 00:44:29;;;;;;;0.90;0.90;;;;;;;;;;7330600;19;153997;-13
2021/11/07 00:47:10;;;;;;;0.80;0.80;;;;;;;;;;7330549;19;153511;-15
2021/11/07 00:49:45;;;;;;;0.70;0.70;;;;;;;;;;7330284;19;162004;-13
2021/11/07 00:52:25;;;;;;;0.95;0.82;;;;;;;;;;7330068;19;162352;-16
2021/11/07 00:55:01;;;;;;;0.85;0.85;;;;;;;;;;7328317;19;154141;-12
2021/11/07 00:57:43;;;;;;;0.60;0.60;;;;;;;;;;7330186;19;153578;-13
2021/11/07 01:00:26;;;;;;;0.80;0.80;;;;;;;;;;7329656;19;161937;-14
2021/11/07 01:02:59;;;;;;;0.80;0.80;;;;;;;;;;7329947;19;162542;-14
2021/11/07 01:05:34;;;;;;;0.70;0.70;;;;;;;;;;7330171;19;154113;-13
2021/11/07 01:08:06;;;;;;;1.00;1.00;;;;;;;;;;7329899;19;153568;-13
2021/11/07 01:10:38;;;;;;;0.70;0.70;;;;;;;;;;7329690;19;161760;-16
2021/11/07 01:13:09;;;;;;;0.80;0.80;;;;;;;;;;7328621;19;162297;-13
2021/11/07 01:15:43;;;;;;;0.90;0.90;;;;;;;;;;7327000;19;154104;-14
2021/11/07 01:18:14;;;;;;;0.60;0.60;;;;;;;;;;7329767;19;153557;-14
2021/11/07 01:20:47;;;;;;;0.60;0.60;;;;;;;;;;7327914;19;161879;-13
2021/11/07 01:23:22;;;;;;;0.80;0.80;;;;;;;;;;7328983;19;162348;-15
2021/11/07 01:25:55;;;;;;;0.88;0.80;;;;;;;;;;7328001;19;153991;-12
2021/11/07 01:28:28;;;;;;;0.80;0.80;;;;;;;;;;7329243;19;153844;-14
2021/11/07 01:31:02;;;;;;;0.80;0.80;;;;;;;;;;7327605;19;162556;-13
2021/11/07 01:33:33;;;;;;;0.57;0.57;;;;;;;;;;7327711;19;162466;-12
2021/11/07 01:36:16;;;;;;;0.70;0.70;;;;;;;;;;7326335;19;154195;-15
2021/11/07 01:38:49;;;;;;;0.70;0.70;;;;;;;;;;7328957;19;153604;-12
2021/11/07 01:41:25;;;;;;;0.70;0.70;;;;;;;;;;7328504;19;162036;-13
2021/11/07 01:43:58;;;;;;;0.68;0.68;;;;;;;;;;7328376;19;162497;-15
2021/11/07 01:46:34;;;;;;;0.50;0.50;;;;;;;;;;7332001;19;154020;-13
2021/11/07 01:49:09;;;;;;;0.80;0.80;;;;;;;;;;7334454;19;154052;-15
2021/11/07 01:51:46;;;;;;;0.70;0.70;;;;;;;;;;7335176;19;161799;-13
2021/11/07 01:54:25;;;;;;;0.60;0.60;;;;;;;;;;7333456;19;162445;-15
2021/11/07 01:56:57;;;;;;;0.73;0.73;;;;;;;;;;7335555;19;154116;-14
2021/11/07 01:59:28;;;;;;;0.65;0.65;;;;;;;;;;7335348;19;153654;-15
2021/11/07 02:02:02;;;;;;;0.60;0.60;;;;;;;;;;7334834;19;161894;-14
2021/11/07 02:04:33;;;;;;;0.68;0.68;;;;;;;;;;7334815;19;162474;-14
2021/11/07 02:07:05;;;;;;;1.23;0.80;;;;;;;;;;7334349;19;153991;-13
2021/11/07 02:09:37;;;;;;;0.68;0.68;;;;;;;;;;7336773;19;153535;-11
2021/11/07 02:12:10;;;;;;;0.70;0.70;;;;;;;;;;7334368;19;161804;-12
2021/11/07 10:54:20;;;;;;;0.50;0.50;;;;;;;;;;7367818;19;153222;-12
2021/11/07 10:57:15;;;;;;;3.03;0.60;;;;;;;;;;7368047;19;161857;-25
2021/11/07 11:00:10;;;;;;;0.50;0.50;;;;;;;;;;7366702;19;162726;-14
2021/11/07 11:02:43;;;;;;;1.10;0.77;;;;;;;;;;7366816;19;153916;-12
2021/11/07 11:05:18;;;;;;;0.60;0.55;;;;;;;;;;7368462;19;153555;-13
2021/11/07 11:08:10;;;;;;;0.45;0.40;;;;;;;;;;7367636;19;161986;-14
2021/11/07 11:10:51;;;;;;;1.60;0.50;;;;;;;;;;7367407;19;162377;-14
2021/11/07 11:13:33;;;;;;;2.05;0.68;;;;;;;;;;7366348;19;154703;-11
2021/11/07 11:21:58;;;;;;;0.57;0.50;;;;;;;;;;7366314;19;162374;-13
2021/11/07 11:27:42;;;;;;;0.57;0.40;;;;;;;;;;7364512;19;153832;-12
2021/11/07 11:33:07;;;;;;;0.30;0.30;;;;;;;;;;7365336;19;162499;-11
2021/11/07 11:35:43;;;;;;;1.02;0.43;;;;;;;;;;7366923;19;154492;-11
2021/11/07 11:38:19;;;;;;;0.30;0.30;;;;;;;;;;7366008;19;153689;-13
2021/11/07 11:41:01;;;;;;;0.30;0.30;;;;;;;;;;7361667;19;161929;-18
2021/11/07 11:43:37;;;;;;;0.40;0.40;;;;;;;;;;7365221;19;162570;-12
2021/11/07 11:46:18;;;;;;;0.50;0.50;;;;;;;;;;7366079;19;154054;-12
2021/11/07 11:49:23;;;;;;;0.40;0.40;;;;;;;;;;7365334;19;153746;-13
2021/11/07 11:55:01;;;;;;;0.50;0.50;;;;;;;;;;7336308;19;162476;-12
2021/11/07 11:57:51;;;;;;;0.55;0.55;;;;;;;;;;7337309;19;153994;-11
2021/11/07 12:00:45;;;;;;;1.40;0.40;;;;;;;;;;7334905;19;153524;-10
2021/11/07 12:03:37;;;;;;;1.20;0.55;;;;;;;;;;7336765;19;161844;-12
2021/11/07 12:06:30;;;;;;;0.40;0.40;;;;;;;;;;7335421;19;162422;-14
2021/11/07 12:09:23;;;;;;;0.40;0.40;;;;;;;;;;7336283;19;154015;-13
2021/11/07 12:12:01;;;;;;;0.40;0.40;;;;;;;;;;7336603;19;153579;-11
2021/11/07 12:15:08;;;;;;;0.35;0.35;;;;;;;;;;7333791;19;161825;-13
2021/11/07 12:17:44;;;;;;;0.30;0.30;;;;;;;;;;7336251;19;162361;-13
2021/11/07 12:20:28;;;;;;;0.30;0.30;;;;;;;;;;7334679;19;153929;-13
2021/11/07 12:23:18;;;;;;;0.30;0.30;;;;;;;;;;7336701;19;153533;-14
2021/11/07 12:25:50;;;;;;;1.38;0.40;;;;;;;;;;7334900;19;163355;-12
2021/11/07 12:28:42;;;;;;;0.52;0.52;;;;;;;;;;7335552;19;162385;-11
2021/11/07 12:31:16;;;;;;;0.38;0.38;;;;;;;;;;7333037;19;153985;-12
2021/11/07 12:33:55;;;;;;;0.40;0.40;;;;;;;;;;7335410;19;153598;-12
2021/11/07 12:40:28;;;;;;;0.40;0.40;;;;;;;;;;7336235;19;162076;-12
2021/11/07 12:42:20;;;;;;;0.45;0.45;;;;;;;;;;7333347;19;154113;-12
2021/11/07 12:44:54;;;;;;;0.50;0.50;;;;;;;;;;7335519;19;153688;-14
2021/11/07 12:47:57;;;;;;;0.52;0.30;;;;;;;;;;7333527;19;163606;-11
2021/11/07 12:50:31;;;;;;;0.30;0.30;;;;;;;;;;7334850;19;162511;-12
2021/11/07 12:53:05;;;;;;;0.55;0.55;;;;;;;;;;7335559;19;154010;-13
2021/11/07 12:55:54;;;;;;;1.00;0.52;;;;;;;;;;7336500;19;153513;-12
2021/11/07 12:58:31;;;;;;;;;;;;;;;;;;7334593;19;161952;-12
2021/11/07 13:01:07;;;;;;;0.30;0.30;;;;;;;;;;7334846;19;162317;-12
2021/11/07 13:03:47;;;;;;;0.40;0.40;;;;;;;;;;7333958;19;153535;-12
2021/11/07 13:06:23;;;;;;;0.45;0.45;;;;;;;;;;7333524;19;153670;-12
2021/11/07 13:09:00;;;;;;;0.40;0.40;;;;;;;;;;7334258;19;161889;-13
2021/11/07 13:11:42;;;;;;;0.43;0.43;;;;;;;;;;7333240;19;162555;-12
2021/11/07 13:14:29;;;;;;;0.40;0.40;;;;;;;;;;7333403;19;154091;-11
2021/11/07 13:17:33;;;;;;;0.95;0.50;;;;;;;;;;7334461;19;153666;-12
2021/11/07 13:20:41;;;;;;;0.30;0.30;;;;;;;;;;7335456;19;162086;-14
2021/11/07 13:23:40;;;;;;;0.60;0.57;;;;;;;;;;7333042;19;162631;-12
2021/11/07 13:26:23;;;;;;;0.70;0.60;;;;;;;;;;7336021;19;153879;-12
2021/11/07 13:29:07;;;;;;;1.50;0.60;;;;;;;;;;7331009;19;153644;-12
2021/11/07 13:31:57;;;;;;;0.57;0.50;;;;;;;;;;7333037;19;162033;-13
2021/11/07 13:34:30;;;;;;;0.50;0.50;;;;;;;;;;7333400;19;162722;-14
2021/11/07 13:37:09;;;;;;;0.95;0.65;;;;;;;;;;7335536;19;153988;-11
2021/11/07 13:39:41;;;;;;;0.85;0.60;;;;;;;;;;7335051;19;153898;-12
2021/11/07 13:42:15;;;;;;;0.63;0.63;;;;;;;;;;7332861;19;161774;-12
2021/11/07 13:44:54;;;;;;;0.50;0.50;;;;;;;;;;7333628;19;162695;-13
2021/11/07 13:47:32;;;;;;;0.40;0.40;;;;;;;;;;7334572;19;154073;-13
2021/11/07 13:50:09;;;;;;;0.45;0.45;;;;;;;;;;7332109;19;153570;-12
2021/11/07 13:52:44;;;;;;;0.63;0.63;;;;;;;;;;7328970;19;161906;-14
2021/11/07 13:55:20;;;;;;;0.52;0.52;;;;;;;;;;7333206;19;162414;-14
2021/11/07 13:57:55;;;;;;;0.50;0.50;;;;;;;;;;7334640;19;153960;-13
2021/11/07 14:00:29;;;;;;;0.40;0.40;;;;;;;;;;7333252;19;153552;-13
2021/11/07 14:03:02;;;;;;;0.47;0.47;;;;;;;;;;7332746;19;162030;-13
2021/11/07 14:05:39;;;;;;;0.70;0.70;;;;;;;;;;7332937;19;162866;-13
2021/11/07 14:08:14;;;;;;;1.48;0.60;;;;;;;;;;7334157;19;154181;-13
2021/11/07 14:10:47;;;;;;;0.60;0.60;;;;;;;;;;7333286;19;153855;-12
2021/11/07 14:13:24;;;;;;;0.85;0.57;;;;;;;;;;7331982;19;164166;-14
2021/11/07 14:15:58;;;;;;;0.40;0.40;;;;;;;;;;7333029;19;162447;-13
2021/11/07 14:18:31;;;;;;;0.60;0.60;;;;;;;;;;7333767;19;153966;-13
2021/11/07 14:21:06;;;;;;;1.42;0.50;;;;;;;;;;7332176;19;153537;-12
2021/11/07 14:23:45;;;;;;;0.88;0.52;;;;;;;;;;7333029;19;161854;-13
2021/11/07 14:26:22;;;;;;;0.55;0.50;;;;;;;;;;7332825;19;162364;-13
2021/11/07 14:29:03;;;;;;;0.75;0.50;;;;;;;;;;7332447;19;153933;-16
2021/11/07 14:31:39;;;;;;;0.70;0.70;;;;;;;;;;7330598;19;153857;-13
2021/11/07 14:34:21;;;;;;;1.08;0.50;;;;;;;;;;7332488;19;161874;-13
2021/11/07 14:37:03;;;;;;;0.60;0.60;;;;;;;;;;7332594;19;162677;-13
2021/11/07 14:39:45;;;;;;;0.63;0.50;;;;;;;;;;7333381;19;153928;-12
2021/11/07 14:42:42;;;;;;;0.60;0.60;;;;;;;;;;7333196;19;153481;-12
2021/11/07 14:45:32;;;;;;;0.85;0.50;;;;;;;;;;7330516;19;162138;-13
2021/11/07 14:48:20;;;;;;;0.60;0.60;;;;;;;;;;7331710;19;162949;-15
2021/11/07 14:51:10;;;;;;;0.60;0.60;;;;;;;;;;7330710;19;154032;-13
2021/11/07 14:53:50;;;;;;;1.45;0.63;;;;;;;;;;7332093;19;153518;-14
2021/11/07 14:56:36;;;;;;;1.67;0.70;;;;;;;;;;7332155;19;161873;-14
2021/11/07 14:59:20;;;;;;;0.60;0.60;;;;;;;;;;7331846;19;162420;-13
2021/11/07 15:01:58;;;;;;;0.43;0.40;;;;;;;;;;7332550;19;153917;-11
2021/11/07 15:04:46;;;;;;;0.50;0.50;;;;;;;;;;7332041;19;153501;-13
2021/11/07 15:07:30;;;;;;;0.50;0.50;;;;;;;;;;7331322;19;162092;-12
2021/11/07 15:13:33;;;;;;;0.75;0.60;;;;;;;;;;7330766;19;154022;-14
2021/11/07 15:16:13;;;;;;;0.55;0.55;;;;;;;;;;7330208;19;153499;-14
2021/11/07 15:18:53;;;;;;;0.57;0.50;;;;;;;;;;7329748;19;162248;-15
2021/11/07 15:21:32;;;;;;;0.50;0.50;;;;;;;;;;7330558;19;162385;-13
2021/11/07 15:24:09;;;;;;;0.50;0.50;;;;;;;;;;7331239;19;154013;-13
2021/11/07 15:26:44;;;;;;;0.40;0.40;;;;;;;;;;7335247;19;153733;-14
2021/11/07 15:29:21;;;;;;;0.63;0.63;;;;;;;;;;7338294;19;162095;-14
2021/11/07 15:32:02;;;;;;;0.40;0.40;;;;;;;;;;7337683;19;162439;-13
2021/11/07 15:34:37;;;;;;;0.50;0.50;;;;;;;;;;7338399;19;154117;-13
2021/11/07 15:37:11;;;;;;;0.50;0.50;;;;;;;;;;7338198;19;153515;-12
2021/11/07 15:39:49;;;;;;;0.50;0.50;;;;;;;;;;7336698;19;161648;-13
2021/11/07 15:42:23;;;;;;;0.60;0.60;;;;;;;;;;7335219;19;162364;-13
2021/11/07 15:45:00;;;;;;;0.88;0.70;;;;;;;;;;7336770;19;154175;-13
2021/11/07 15:47:38;;;;;;;0.50;0.50;;;;;;;;;;7337161;19;153417;-14
2021/11/07 15:50:19;;;;;;;0.50;0.50;;;;;;;;;;7336285;19;161851;-15
2021/11/07 15:52:59;;;;;;;0.60;0.60;;;;;;;;;;7335251;19;162721;-14
2021/11/07 15:55:36;;;;;;;0.40;0.40;;;;;;;;;;7336833;19;153943;-14
2021/11/07 15:58:32;;;;;;;0.50;0.50;;;;;;;;;;7337179;19;153573;-13
2021/11/07 16:01:16;;;;;;;0.40;0.40;;;;;;;;;;7335473;19;161854;-14
2021/11/07 16:03:57;;;;;;;0.45;0.45;;;;;;;;;;7336941;19;162679;-13
2021/11/07 16:06:42;;;;;;;0.68;0.50;;;;;;;;;;7337206;19;153997;-14
2021/11/07 16:09:25;;;;;;;0.50;0.45;;;;;;;;;;7337484;19;153699;-13
2021/11/07 16:12:06;;;;;;;0.57;0.57;;;;;;;;;;7336380;19;161631;-13
2021/11/07 16:14:51;;;;;;;0.40;0.40;;;;;;;;;;7336637;19;162353;-12
2021/11/07 16:17:28;;;;;;;0.40;0.40;;;;;;;;;;7337233;19;153989;-12
2021/11/07 16:20:01;;;;;;;0.50;0.50;;;;;;;;;;7337081;19;153835;-13
2021/11/07 16:22:33;;;;;;;0.60;0.60;;;;;;;;;;7336714;19;161842;-13
2021/11/07 16:25:06;;;;;;;0.50;0.50;;;;;;;;;;7336180;19;162440;-13
2021/11/07 16:27:37;;;;;;;;;;;;;;;;;;7337022;19;154379;-14
2021/11/07 16:30:14;;;;;;;0.60;0.60;;;;;;;;;;7337140;19;153485;-13
2021/11/07 16:33:00;;;;;;;0.60;0.60;;;;;;;;;;7334449;19;162025;-13
2021/11/07 16:35:39;;;;;;;0.40;0.40;;;;;;;;;;7332559;19;162264;-14
2021/11/07 16:38:18;;;;;;;0.75;0.50;;;;;;;;;;7333220;19;154065;-14
2021/11/07 16:40:53;;;;;;;0.40;0.40;;;;;;;;;;7333556;19;153669;-13
2021/11/07 16:43:27;;;;;;;0.40;0.40;;;;;;;;;;7333785;19;161890;-15
2021/11/07 16:46:05;;;;;;;0.50;0.50;;;;;;;;;;7333427;19;162427;-14
2021/11/07 16:48:44;;;;;;;1.25;0.60;;;;;;;;;;7333407;19;154108;-14
2021/11/07 16:51:22;;;;;;;0.40;0.40;;;;;;;;;;7330486;19;153710;-13
2021/11/07 16:53:58;;;;;;;0.50;0.50;;;;;;;;;;7332060;19;162053;-14
2021/11/07 16:56:32;;;;;;;0.45;0.45;;;;;;;;;;7333581;19;162402;-13
2021/11/07 16:59:11;;;;;;;0.50;0.50;;;;;;;;;;7331332;19;154318;-15
2021/11/07 17:01:48;;;;;;;0.50;0.50;;;;;;;;;;7332563;19;154131;-14
2021/11/07 17:04:25;;;;;;;1.02;0.52;;;;;;;;;;7333802;19;161763;-12
2021/11/07 17:07:00;;;;;;;0.50;0.50;;;;;;;;;;7334677;19;163195;-14
2021/11/07 17:09:41;;;;;;;0.50;0.50;;;;;;;;;;7333167;19;153945;-13
2021/11/07 17:12:16;;;;;;;0.40;0.40;;;;;;;;;;7334819;19;153729;-12
2021/11/07 17:14:50;;;;;;;0.40;0.40;;;;;;;;;;7333194;19;161997;-13
2021/11/07 17:17:26;;;;;;;0.40;0.40;;;;;;;;;;7334143;19;162410;-12
2021/11/07 17:20:03;;;;;;;0.40;0.40;;;;;;;;;;7334406;19;153958;-12
2021/11/07 17:22:48;;;;;;;0.50;0.50;;;;;;;;;;7335504;19;153547;-13
2021/11/07 17:25:26;;;;;;;0.55;0.55;;;;;;;;;;7332552;19;162617;-14
2021/11/07 17:28:18;;;;;;;0.60;0.60;;;;;;;;;;7333821;19;162587;-13
2021/11/07 17:30:54;;;;;;;0.40;0.40;;;;;;;;;;7335298;19;154223;-14
2021/11/07 17:33:32;;;;;;;0.55;0.50;;;;;;;;;;7330971;19;153516;-11
2021/11/07 17:36:15;;;;;;;0.50;0.50;;;;;;;;;;7333424;19;162062;-13
2021/11/07 17:38:52;;;;;;;0.40;0.40;;;;;;;;;;7334761;19;162694;-13
2021/11/07 17:41:52;;;;;;;0.38;0.38;;;;;;;;;;7332173;19;154049;-13
2021/11/07 17:50:05;;;;;;;0.43;0.43;;;;;;;;;;7328434;19;162519;-11
2021/11/07 17:55:24;;;;;;;0.75;0.50;;;;;;;;;;7329076;19;153633;-14
2021/11/07 17:57:58;;;;;;;0.43;0.43;;;;;;;;;;7330654;19;162011;-13
2021/11/07 18:00:32;;;;;;;;;;;;;;;;;;7333966;19;162526;-12
2021/11/07 18:03:03;;;;;;;;;;;;;;;;;;7334832;19;154398;-15
2021/11/07 18:05:35;;;;;;;0.40;0.40;;;;;;;;;;7331710;19;153349;-12
2021/11/07 18:08:16;;;;;;;0.60;0.60;;;;;;;;;;7332589;19;162152;-13
2021/11/07 18:10:50;;;;;;;0.40;0.40;;;;;;;;;;7333807;19;162764;-12
2021/11/07 18:13:28;;;;;;;0.40;0.40;;;;;;;;;;7333114;19;153981;-11
2021/11/07 18:16:01;;;;;;;0.40;0.40;;;;;;;;;;7331983;19;153547;-14
2021/11/07 18:18:32;;;;;;;0.40;0.40;;;;;;;;;;7333472;19;161853;-12
2021/11/07 18:21:03;;;;;;;0.30;0.30;;;;;;;;;;7333756;19;162521;-14
2021/11/07 18:23:40;;;;;;;0.52;0.52;;;;;;;;;;7330895;19;154236;-12
2021/11/07 18:26:13;;;;;;;0.47;0.47;;;;;;;;;;7332048;19;153296;-14
2021/11/07 18:28:47;;;;;;;0.40;0.40;;;;;;;;;;7332893;19;162173;-13
2021/11/07 18:31:18;;;;;;;0.50;0.50;;;;;;;;;;7331920;19;162362;-13
2021/11/07 18:37:19;;;;;;;0.90;0.50;;;;;;;;;;7134962;19;137222;31
2021/11/07 18:39:54;;;;;;;2.08;0.68;;;;;;;;;;7331186;19;161881;-12
2021/11/07 18:42:27;;;;;;;0.40;0.40;;;;;;;;;;7330915;19;162712;-12
2021/11/07 18:44:58;;;;;;;;;;;;;;;;;;7331785;19;154093;-12
2021/11/07 18:47:31;;;;;;;0.40;0.40;;;;;;;;;;7333167;19;153514;-11
2021/11/07 18:50:04;;;;;;;0.40;0.40;;;;;;;;;;7331264;19;161293;-12
2021/11/07 18:52:37;;;;;;;0.50;0.50;;;;;;;;;;7328714;19;162441;-12
2021/11/07 18:55:14;;;;;;;0.50;0.50;;;;;;;;;;7330256;19;154177;-12
2021/11/07 18:57:47;;;;;;;0.47;0.47;;;;;;;;;;7330854;19;154194;-12
2021/11/07 19:00:21;;;;;;;0.73;0.50;;;;;;;;;;7331671;19;161789;-13
2021/11/07 19:02:52;;;;;;;0.88;0.50;;;;;;;;;;7335983;19;162399;-13
2021/11/07 19:05:24;;;;;;;0.45;0.45;;;;;;;;;;7337230;19;154131;-13
2021/11/07 19:07:56;;;;;;;0.50;0.50;;;;;;;;;;7338200;19;153515;-13
2021/11/07 19:10:31;;;;;;;0.63;0.63;;;;;;;;;;7339012;19;162536;-14
2021/11/07 19:13:02;;;;;;;0.50;0.50;;;;;;;;;;7336027;19;162400;-12
2021/11/07 19:15:37;;;;;;;0.50;0.50;;;;;;;;;;7336146;19;153936;-12
2021/11/07 19:18:11;;;;;;;1.02;0.52;;;;;;;;;;7338488;19;153539;-12
2021/11/07 19:20:43;;;;;;;0.50;0.50;;;;;;;;;;7338693;19;161836;-12
2021/11/07 19:23:14;;;;;;;0.50;0.50;;;;;;;;;;7335842;19;162325;-12
2021/11/07 19:25:50;;;;;;;1.33;0.90;;;;;;;;;;7337569;19;154017;-12
2021/11/07 19:28:22;;;;;;;0.93;0.70;;;;;;;;;;7338777;19;153709;-12
2021/11/07 19:30:54;;;;;;;0.60;0.60;;;;;;;;;;7335232;19;161953;-15
2021/11/07 19:33:25;;;;;;;0.55;0.52;;;;;;;;;;7336278;19;162549;-12
2021/11/07 19:35:58;;;;;;;5.32;2.78;;;;;;;;;;7337235;19;154313;-12
2021/11/07 19:38:30;;;;;;;1.40;1.20;;;;;;;;;;7334663;19;153531;-12
2021/11/07 19:41:05;;;;;;;2.13;1.33;;;;;;;;;;7334025;19;161865;-12
2021/11/07 19:43:36;;;;;;;3.72;1.60;;;;;;;;;;7336556;19;162399;-11
2021/11/07 19:46:11;;;;;;;1.42;1.33;;;;;;;;;;7337501;19;154056;-12
2021/11/07 19:48:55;;;;;;;1.00;1.00;;;;;;;;;;7337381;19;153550;-12
2021/11/07 19:51:34;;;;;;;1.30;1.20;;;;;;;;;;7335155;19;162064;-12
2021/11/07 19:54:06;;;;;;;1.75;1.20;;;;;;;;;;7336508;19;162405;-12
2021/11/07 19:56:42;;;;;;;1.58;1.33;;;;;;;;;;7335244;19;154026;-12
2021/11/07 19:59:18;;;;;;;1.30;1.17;;;;;;;;;;7334571;19;153501;-12
2021/11/07 20:04:45;;;;;;;1.65;1.23;;;;;;;;;;7335322;19;162360;-12
2021/11/07 20:07:37;;;;;;;1.05;1.02;;;;;;;;;;7335830;19;154103;-12
2021/11/07 20:10:09;;;;;;;1.23;1.13;;;;;;;;;;7336413;19;153745;-18
2021/11/07 20:12:45;;;;;;;1.30;1.30;;;;;;;;;;7334995;19;162083;-12
2021/11/07 20:15:17;;;;;;;1.70;1.20;;;;;;;;;;7335703;19;162473;-12
2021/11/07 20:17:49;;;;;;;1.38;1.27;;;;;;;;;;7335048;19;154676;-12
2021/11/07 20:20:21;;;;;;;1.45;1.35;;;;;;;;;;7336250;19;153477;-12
2021/11/07 20:22:54;;;;;;;1.30;1.20;;;;;;;;;;7335664;19;161901;-11
2021/11/07 20:25:26;;;;;;;1.23;1.13;;;;;;;;;;7335931;19;162385;-12
2021/11/07 20:28:05;;;;;;;1.40;1.20;;;;;;;;;;7334734;19;154157;-12
2021/11/07 20:30:37;;;;;;;1.20;1.10;;;;;;;;;;7334636;19;153595;-11
2021/11/07 20:33:11;;;;;;;1.20;1.10;;;;;;;;;;7336241;19;161825;-11
2021/11/07 20:35:49;;;;;;;1.20;1.10;;;;;;;;;;7335510;19;162421;-11
2021/11/07 20:38:24;;;;;;;1.52;1.15;;;;;;;;;;7335610;19;154129;-11
2021/11/07 20:40:59;;;;;;;1.58;1.48;;;;;;;;;;7336235;19;153753;-11
2021/11/07 20:43:35;;;;;;;1.20;1.10;;;;;;;;;;7332186;19;161854;-11
2021/11/07 20:46:51;;;;;;;1.20;1.10;;;;;;;;;;7334225;19;163168;-11
2021/11/07 20:51:57;;;;;;;1.00;1.00;;;;;;;;;;7331147;19;153710;-12
2021/11/07 20:54:36;;;;;;;1.00;1.00;;;;;;;;;;7335227;19;161919;-12
2021/11/07 20:57:17;;;;;;;1.90;1.30;;;;;;;;;;7333846;19;162422;-12
2021/11/07 20:59:58;;;;;;;1.13;1.10;;;;;;;;;;7333336;19;154089;-12
2021/11/07 21:02:34;;;;;;;1.45;1.30;;;;;;;;;;7333927;19;153746;-11
2021/11/07 21:05:10;;;;;;;0.93;0.93;;;;;;;;;;7334238;19;161934;-11
2021/11/07 21:07:48;;;;;;;0.90;0.90;;;;;;;;;;7334892;19;162405;-11
2021/11/07 21:10:23;;;;;;;1.10;1.00;;;;;;;;;;7333002;19;154016;-11
2021/11/07 21:12:57;;;;;;;1.30;1.15;;;;;;;;;;7333860;19;153490;-12
2021/11/07 21:15:38;;;;;;;0.95;0.95;;;;;;;;;;7334693;19;162007;-11
2021/11/07 21:18:32;;;;;;;0.85;0.85;;;;;;;;;;7335112;19;162626;-11
2021/11/07 21:25:48;;;;;;;1.15;1.10;;;;;;;;;;7331742;19;153689;-12
2021/11/07 21:26:46;;;;;;;0.93;0.93;;;;;;;;;;7334669;19;161869;-12
2021/11/07 21:29:17;;;;;;;0.98;0.98;;;;;;;;;;7332595;19;162419;-12
2021/11/07 21:31:52;;;;;;;1.20;1.10;;;;;;;;;;7334741;19;154612;-12
2021/11/07 21:34:29;;;;;;;1.25;1.20;;;;;;;;;;7335070;19;153767;-12
2021/11/07 21:37:13;;;;;;;0.98;0.98;;;;;;;;;;7330990;19;161945;-12
2021/11/07 21:39:50;;;;;;;0.90;0.90;;;;;;;;;;7330784;19;162625;-12
2021/11/07 21:42:24;;;;;;;1.75;1.00;;;;;;;;;;7335051;19;154228;-12
2021/11/07 21:44:57;;;;;;;1.42;1.20;;;;;;;;;;7330578;19;153621;-12
2021/11/07 21:47:33;;;;;;;1.30;1.20;;;;;;;;;;7333694;19;161852;-12
2021/11/07 21:50:04;;;;;;;1.10;1.00;;;;;;;;;;7331961;19;162668;-13
2021/11/07 21:52:37;;;;;;;0.90;0.90;;;;;;;;;;7331042;19;154096;-12
2021/11/07 21:55:11;;;;;;;1.02;1.00;;;;;;;;;;7333568;19;154513;-13
2021/11/07 21:57:42;;;;;;;1.00;1.00;;;;;;;;;;7331251;19;161794;-12
2021/11/07 22:00:16;;;;;;;0.90;0.90;;;;;;;;;;7332805;19;162538;-13
2021/11/07 22:02:51;;;;;;;1.10;1.10;;;;;;;;;;7334140;19;154005;-11
2021/11/07 22:05:23;;;;;;;1.00;1.00;;;;;;;;;;7332590;19;153700;-12
2021/11/07 22:07:54;;;;;;;1.00;1.00;;;;;;;;;;7332652;19;161833;-12
2021/11/07 22:10:26;;;;;;;1.05;1.05;;;;;;;;;;7332737;19;162366;-12
2021/11/07 22:13:06;;;;;;;1.00;1.00;;;;;;;;;;7332727;19;153981;-14
2021/11/07 22:15:39;;;;;;;0.90;0.90;;;;;;;;;;7333118;19;153975;-12
2021/11/07 22:18:15;;;;;;;1.00;1.00;;;;;;;;;;7330227;19;161950;-12
2021/11/07 22:20:53;;;;;;;2.05;1.00;;;;;;;;;;7329616;19;162521;-12
2021/11/07 22:23:26;;;;;;;1.83;1.73;;;;;;;;;;7330261;19;154075;-12
2021/11/07 22:26:06;;;;;;;1.20;1.20;;;;;;;;;;7331734;19;154394;-12
2021/11/07 22:28:39;;;;;;;1.17;1.17;;;;;;;;;;7331637;19;161870;-13
2021/11/07 22:37:20;;;;;;;;;;;;;;;;;;7331392;19;153567;-11
2021/11/07 22:39:51;;;;;;;1.20;1.10;;;;;;;;;;7329399;19;162183;-12
2021/11/07 22:42:25;;;;;;;1.00;1.00;;;;;;;;;;7331076;19;162368;-12
2021/11/07 22:44:59;;;;;;;0.90;0.90;;;;;;;;;;7331086;19;154268;-12
2021/11/07 22:47:34;;;;;;;1.13;1.02;;;;;;;;;;7331391;19;153508;-12
2021/11/07 22:50:14;;;;;;;1.27;1.00;;;;;;;;;;7330691;19;161966;-12
2021/11/07 22:52:53;;;;;;;0.90;0.90;;;;;;;;;;7328827;19;163395;-14
2021/11/07 22:55:46;;;;;;;0.90;0.90;;;;;;;;;;7323519;19;154138;-12
2021/11/07 22:58:32;;;;;;;1.10;1.00;;;;;;;;;;7327707;19;153534;-12
2021/11/07 23:01:15;;;;;;;0.80;0.80;;;;;;;;;;7326987;19;161972;-13
2021/11/07 23:03:57;;;;;;;0.90;0.90;;;;;;;;;;7330653;19;162553;-13
2021/11/07 23:06:30;;;;;;;0.90;0.90;;;;;;;;;;7328608;19;154365;-12
2021/11/07 23:09:16;;;;;;;1.15;1.05;;;;;;;;;;7327839;19;153704;-12
2021/11/07 23:11:50;;;;;;;0.88;0.88;;;;;;;;;;7327492;19;162032;-13
2021/11/07 23:14:25;;;;;;;0.90;0.90;;;;;;;;;;7329427;19;162394;-12
2021/11/07 23:17:00;;;;;;;1.00;1.00;;;;;;;;;;7331309;19;154161;-12
2021/11/07 23:19:36;;;;;;;0.80;0.80;;;;;;;;;;7328618;19;153675;-13
2021/11/07 23:22:10;;;;;;;0.93;0.90;;;;;;;;;;7324730;19;161969;-12
2021/11/07 23:24:44;;;;;;;1.00;1.00;;;;;;;;;;7327811;19;162581;-12
2021/11/07 23:27:17;;;;;;;1.00;1.00;;;;;;;;;;7328183;19;154218;-12
2021/11/07 23:29:55;;;;;;;0.98;0.98;;;;;;;;;;7325734;19;153966;-12
2021/11/07 23:32:28;;;;;;;1.00;1.00;;;;;;;;;;7317632;19;163635;-13
2021/11/07 23:35:00;;;;;;;1.02;0.90;;;;;;;;;;7323982;19;162557;-12
2021/11/07 23:37:33;;;;;;;0.90;0.90;;;;;;;;;;7329966;19;153986;-12
2021/11/07 23:40:08;;;;;;;;;;;;;;;;;;7329321;19;153746;-13
2021/11/07 23:42:41;;;;;;;0.77;0.77;;;;;;;;;;7329606;19;162198;-13
2021/11/07 23:45:16;;;;;;;0.90;0.90;;;;;;;;;;7327595;19;162396;-12
2021/11/07 23:47:48;;;;;;;0.85;0.80;;;;;;;;;;7331199;19;154239;-12
2021/11/07 23:50:30;;;;;;;0.93;0.93;;;;;;;;;;7334721;19;153528;-13
2021/11/07 23:53:12;;;;;;;0.97;0.97;;;;;;;;;;7336433;19;161973;-13
2021/11/07 23:55:45;;;;;;;0.75;0.75;;;;;;;;;;7334125;19;162361;-12
2021/11/07 23:58:18;;;;;;;0.90;0.90;;;;;;;;;;7334346;19;154000;-12
